sensor_id;sensor_type;location;lat;lon;timestamp;P1;durP1;ratioP1;P2;durP2;ratioP2
48679;SDS011;34475;51.658;5.634;2022-08-14T00:00:00;0.6;;;0.5;;
48679;SDS011;34475;51.658;5.634;2022-08-14T00:01:01;0.6;;;0.5;;
48679;SDS011;34475;51.658;5.634;2022-08-14T00:02:03;0.6;;;0.5;;
48679;SDS011;34475;51.658;5.634;2022-08-14T00:03:00;0.6;;;0.5;;
48679;SDS011;34475;51.658;5.634;2022-08-14T00:04:01;0.6;;;0.5;;
48679;SDS011;34475;51.658;5.634;2022-08-14T00:05:00;0.6;;;0.5;;
48679;SDS011;34475;51.658;5.634;2022-08-14T00:06:11;0.6;;;0.5;;
48679;SDS011;34475;51.658;5.634;2022-08-14T00:07:00;0.6;;;0.5;;
48679;SDS011;34475;51.658;5.634;2022-08-14T00:08:00;0.6;;;0.5;;
48679;SDS011;34475;51.658;5.634;2022-08-14T00:09:00;0.6;;;0.5;;
48679;SDS011;34475;51.658;5.634;2022-08-14T00:10:11;0.6;;;0.5;;
48679;SDS011;34475;51.658;5.634;2022-08-14T00:11:00;0.6;;;0.5;;
48679;SDS011;34475;51.658;5.634;2022-08-14T00:12:00;0.6;;;0.5;;
48679;SDS011;34475;51.658;5.634;2022-08-14T00:13:07;2.9;;;0.9;;
48679;SDS011;34475;51.658;5.634;2022-08-14T00:14:02;2.9;;;0.9;;
48679;SDS011;34475;51.658;5.634;2022-08-14T00:15:06;2.9;;;0.9;;
48679;SDS011;34475;51.658;5.634;2022-08-14T00:16:00;2.9;;;0.9;;
48679;SDS011;34475;51.658;5.634;2022-08-14T00:17:02;2.9;;;0.9;;
48679;SDS011;34475;51.658;5.634;2022-08-14T00:18:01;2.9;;;0.9;;
48679;SDS011;34475;51.658;5.634;2022-08-14T00:19:11;2.9;;;0.9;;
48679;SDS011;34475;51.658;5.634;2022-08-14T00:20:00;2.9;;;0.9;;
48679;SDS011;34475;51.658;5.634;2022-08-14T00:21:01;2.9;;;0.9;;
48679;SDS011;34475;51.658;5.634;2022-08-14T00:22:00;2.9;;;0.9;;
48679;SDS011;34475;51.658;5.634;2022-08-14T00:23:11;2.9;;;0.9;;
48679;SDS011;34475;51.658;5.634;2022-08-14T00:24:03;2.9;;;0.9;;
48679;SDS011;34475;51.658;5.634;2022-08-14T00:25:00;2.9;;;0.9;;
48679;SDS011;34475;51.658;5.634;2022-08-14T00:26:08;2.9;;;0.9;;
48679;SDS011;34475;51.658;5.634;2022-08-14T00:27:02;2.9;;;0.9;;
48679;SDS011;34475;51.658;5.634;2022-08-14T00:28:06;2.9;;;0.9;;
48679;SDS011;34475;51.658;5.634;2022-08-14T00:29:01;2.9;;;0.9;;
48679;SDS011;34475;51.658;5.634;2022-08-14T00:30:00;2.9;;;0.9;;
48679;SDS011;34475;51.658;5.634;2022-08-14T00:31:01;2.9;;;0.9;;
48679;SDS011;34475;51.658;5.634;2022-08-14T00:32:06;0.1;;;0.1;;
48679;SDS011;34475;51.658;5.634;2022-08-14T00:33:00;0.1;;;0.1;;
48679;SDS011;34475;51.658;5.634;2022-08-14T00:34:10;0.1;;;0.1;;
48679;SDS011;34475;51.658;5.634;2022-08-14T00:35:00;0.1;;;0.1;;
48679;SDS011;34475;51.658;5.634;2022-08-14T00:36:10;0.1;;;0.1;;
48679;SDS011;34475;51.658;5.634;2022-08-14T00:37:02;0.1;;;0.1;;
48679;SDS011;34475;51.658;5.634;2022-08-14T00:38:01;0.1;;;0.1;;
48679;SDS011;34475;51.658;5.634;2022-08-14T00:39:00;0.1;;;0.1;;
48679;SDS011;34475;51.658;5.634;2022-08-14T00:40:01;0.1;;;0.1;;
48679;SDS011;34475;51.658;5.634;2022-08-14T00:41:00;0.1;;;0.1;;
48679;SDS011;34475;51.658;5.634;2022-08-14T00:42:02;0.1;;;0.1;;
48679;SDS011;34475;51.658;5.634;2022-08-14T00:43:02;0.1;;;0.1;;
48679;SDS011;34475;51.658;5.634;2022-08-14T00:44:01;0.1;;;0.1;;
48679;SDS011;34475;51.658;5.634;2022-08-14T00:45:01;0.1;;;0.1;;
48679;SDS011;34475;51.658;5.634;2022-08-14T00:46:08;0.1;;;0.1;;
48679;SDS011;34475;51.658;5.634;2022-08-14T00:47:04;0.1;;;0.1;;
48679;SDS011;34475;51.658;5.634;2022-08-14T00:48:00;0.1;;;0.1;;
48679;SDS011;34475;51.658;5.634;2022-08-14T00:49:00;0.1;;;0.1;;
48679;SDS011;34475;51.658;5.634;2022-08-14T00:50:03;0.1;;;0.1;;
48679;SDS011;34475;51.658;5.634;2022-08-14T00:51:00;0.1;;;0.1;;
48679;SDS011;34475;51.658;5.634;2022-08-14T00:52:00;1.0;;;0.5;;
48679;SDS011;34475;51.658;5.634;2022-08-14T00:53:00;1.0;;;0.5;;
48679;SDS011;34475;51.658;5.634;2022-08-14T00:54:01;1.0;;;0.5;;
48679;SDS011;34475;51.658;5.634;2022-08-14T00:55:02;1.0;;;0.5;;
48679;SDS011;34475;51.658;5.634;2022-08-14T00:56:00;1.0;;;0.5;;
48679;SDS011;34475;51.658;5.634;2022-08-14T00:57:00;1.0;;;0.5;;
48679;SDS011;34475;51.658;5.634;2022-08-14T00:58:13;1.0;;;0.5;;
48679;SDS011;34475;51.658;5.634;2022-08-14T00:59:00;1.0;;;0.5;;
48679;SDS011;34475;51.658;5.634;2022-08-14T01:00:02;1.0;;;0.5;;
48679;SDS011;34475;51.658;5.634;2022-08-14T01:01:05;1.0;;;0.5;;
48679;SDS011;34475;51.658;5.634;2022-08-14T01:02:01;1.0;;;0.5;;
48679;SDS011;34475;51.658;5.634;2022-08-14T01:03:00;1.0;;;0.5;;
48679;SDS011;34475;51.658;5.634;2022-08-14T01:04:05;1.0;;;0.5;;
48679;SDS011;34475;51.658;5.634;2022-08-14T01:05:03;1.0;;;0.5;;
48679;SDS011;34475;51.658;5.634;2022-08-14T01:06:00;1.0;;;0.5;;
48679;SDS011;34475;51.658;5.634;2022-08-14T01:07:06;1.0;;;0.5;;
48679;SDS011;34475;51.658;5.634;2022-08-14T01:08:03;1.0;;;0.5;;
48679;SDS011;34475;51.658;5.634;2022-08-14T01:09:01;1.0;;;0.5;;
48679;SDS011;34475;51.658;5.634;2022-08-14T01:10:03;1.0;;;0.5;;
48679;SDS011;34475;51.658;5.634;2022-08-14T01:11:02;1.0;;;0.5;;
48679;SDS011;34475;51.658;5.634;2022-08-14T01:12:04;2.0;;;0.5;;
48679;SDS011;34475;51.658;5.634;2022-08-14T01:13:01;2.0;;;0.5;;
48679;SDS011;34475;51.658;5.634;2022-08-14T01:14:02;2.0;;;0.5;;
48679;SDS011;34475;51.658;5.634;2022-08-14T01:15:02;2.0;;;0.5;;
48679;SDS011;34475;51.658;5.634;2022-08-14T01:16:04;2.0;;;0.5;;
48679;SDS011;34475;51.658;5.634;2022-08-14T01:17:00;2.0;;;0.5;;
48679;SDS011;34475;51.658;5.634;2022-08-14T01:18:10;2.0;;;0.5;;
48679;SDS011;34475;51.658;5.634;2022-08-14T01:19:13;2.0;;;0.5;;
48679;SDS011;34475;51.658;5.634;2022-08-14T01:20:11;2.0;;;0.5;;
48679;SDS011;34475;51.658;5.634;2022-08-14T01:21:02;2.0;;;0.5;;
48679;SDS011;34475;51.658;5.634;2022-08-14T01:22:02;2.0;;;0.5;;
48679;SDS011;34475;51.658;5.634;2022-08-14T01:23:00;2.0;;;0.5;;
48679;SDS011;34475;51.658;5.634;2022-08-14T01:24:01;2.0;;;0.5;;
48679;SDS011;34475;51.658;5.634;2022-08-14T01:25:00;2.0;;;0.5;;
48679;SDS011;34475;51.658;5.634;2022-08-14T01:26:05;2.0;;;0.5;;
48679;SDS011;34475;51.658;5.634;2022-08-14T01:27:03;2.0;;;0.5;;
48679;SDS011;34475;51.658;5.634;2022-08-14T01:28:00;2.0;;;0.5;;
48679;SDS011;34475;51.658;5.634;2022-08-14T01:29:03;2.0;;;0.5;;
48679;SDS011;34475;51.658;5.634;2022-08-14T01:30:05;2.0;;;0.5;;
48679;SDS011;34475;51.658;5.634;2022-08-14T01:31:06;2.0;;;0.5;;
48679;SDS011;34475;51.658;5.634;2022-08-14T01:32:03;0.1;;;0.1;;
48679;SDS011;34475;51.658;5.634;2022-08-14T01:33:01;0.1;;;0.1;;
48679;SDS011;34475;51.658;5.634;2022-08-14T01:34:11;0.1;;;0.1;;
48679;SDS011;34475;51.658;5.634;2022-08-14T01:35:10;0.1;;;0.1;;
48679;SDS011;34475;51.658;5.634;2022-08-14T01:36:07;0.1;;;0.1;;
48679;SDS011;34475;51.658;5.634;2022-08-14T01:37:01;0.1;;;0.1;;
48679;SDS011;34475;51.658;5.634;2022-08-14T01:38:00;0.1;;;0.1;;
48679;SDS011;34475;51.658;5.634;2022-08-14T01:39:02;0.1;;;0.1;;
48679;SDS011;34475;51.658;5.634;2022-08-14T01:40:02;0.1;;;0.1;;
48679;SDS011;34475;51.658;5.634;2022-08-14T01:41:01;0.1;;;0.1;;
48679;SDS011;34475;51.658;5.634;2022-08-14T01:42:00;0.1;;;0.1;;
48679;SDS011;34475;51.658;5.634;2022-08-14T01:43:02;0.1;;;0.1;;
48679;SDS011;34475;51.658;5.634;2022-08-14T01:44:03;0.1;;;0.1;;
48679;SDS011;34475;51.658;5.634;2022-08-14T01:45:09;0.1;;;0.1;;
48679;SDS011;34475;51.658;5.634;2022-08-14T01:46:10;0.1;;;0.1;;
48679;SDS011;34475;51.658;5.634;2022-08-14T01:47:11;0.1;;;0.1;;
48679;SDS011;34475;51.658;5.634;2022-08-14T01:48:03;0.1;;;0.1;;
48679;SDS011;34475;51.658;5.634;2022-08-14T01:49:04;0.1;;;0.1;;
48679;SDS011;34475;51.658;5.634;2022-08-14T01:50:02;0.1;;;0.1;;
48679;SDS011;34475;51.658;5.634;2022-08-14T01:51:01;0.1;;;0.1;;
48679;SDS011;34475;51.658;5.634;2022-08-14T01:52:00;0.3;;;0.3;;
48679;SDS011;34475;51.658;5.634;2022-08-14T01:53:01;0.3;;;0.3;;
48679;SDS011;34475;51.658;5.634;2022-08-14T01:54:03;0.3;;;0.3;;
48679;SDS011;34475;51.658;5.634;2022-08-14T01:55:00;0.3;;;0.3;;
48679;SDS011;34475;51.658;5.634;2022-08-14T01:56:04;0.3;;;0.3;;
48679;SDS011;34475;51.658;5.634;2022-08-14T01:57:00;0.3;;;0.3;;
48679;SDS011;34475;51.658;5.634;2022-08-14T01:58:12;0.3;;;0.3;;
48679;SDS011;34475;51.658;5.634;2022-08-14T01:59:00;0.3;;;0.3;;
48679;SDS011;34475;51.658;5.634;2022-08-14T02:00:03;0.3;;;0.3;;
48679;SDS011;34475;51.658;5.634;2022-08-14T02:01:01;0.3;;;0.3;;
48679;SDS011;34475;51.658;5.634;2022-08-14T02:02:07;0.3;;;0.3;;
48679;SDS011;34475;51.658;5.634;2022-08-14T02:03:00;0.3;;;0.3;;
48679;SDS011;34475;51.658;5.634;2022-08-14T02:04:01;0.3;;;0.3;;
48679;SDS011;34475;51.658;5.634;2022-08-14T02:05:01;0.3;;;0.3;;
48679;SDS011;34475;51.658;5.634;2022-08-14T02:06:11;0.3;;;0.3;;
48679;SDS011;34475;51.658;5.634;2022-08-14T02:07:02;0.3;;;0.3;;
48679;SDS011;34475;51.658;5.634;2022-08-14T02:08:10;0.3;;;0.3;;
48679;SDS011;34475;51.658;5.634;2022-08-14T02:09:03;0.3;;;0.3;;
48679;SDS011;34475;51.658;5.634;2022-08-14T02:10:00;0.3;;;0.3;;
48679;SDS011;34475;51.658;5.634;2022-08-14T02:11:10;0.3;;;0.3;;
48679;SDS011;34475;51.658;5.634;2022-08-14T02:12:04;0.3;;;0.3;;
48679;SDS011;34475;51.658;5.634;2022-08-14T02:13:07;0.3;;;0.3;;
48679;SDS011;34475;51.658;5.634;2022-08-14T02:14:08;0.3;;;0.3;;
48679;SDS011;34475;51.658;5.634;2022-08-14T02:15:03;0.3;;;0.3;;
48679;SDS011;34475;51.658;5.634;2022-08-14T02:16:11;0.3;;;0.3;;
48679;SDS011;34475;51.658;5.634;2022-08-14T02:17:01;0.3;;;0.3;;
48679;SDS011;34475;51.658;5.634;2022-08-14T02:18:00;0.3;;;0.3;;
48679;SDS011;34475;51.658;5.634;2022-08-14T02:19:03;0.3;;;0.3;;
48679;SDS011;34475;51.658;5.634;2022-08-14T02:20:03;0.3;;;0.3;;
48679;SDS011;34475;51.658;5.634;2022-08-14T02:21:00;0.3;;;0.3;;
48679;SDS011;34475;51.658;5.634;2022-08-14T02:23:00;0.3;;;0.3;;
48679;SDS011;34475;51.658;5.634;2022-08-14T02:24:02;0.3;;;0.3;;
48679;SDS011;34475;51.658;5.634;2022-08-14T02:25:00;0.3;;;0.3;;
48679;SDS011;34475;51.658;5.634;2022-08-14T02:26:14;0.3;;;0.3;;
48679;SDS011;34475;51.658;5.634;2022-08-14T02:27:10;0.3;;;0.3;;
48679;SDS011;34475;51.658;5.634;2022-08-14T02:28:10;0.3;;;0.3;;
48679;SDS011;34475;51.658;5.634;2022-08-14T02:29:06;0.3;;;0.3;;
48679;SDS011;34475;51.658;5.634;2022-08-14T02:30:02;0.3;;;0.3;;
48679;SDS011;34475;51.658;5.634;2022-08-14T02:31:00;0.3;;;0.3;;
48679;SDS011;34475;51.658;5.634;2022-08-14T02:32:00;0.3;;;0.3;;
48679;SDS011;34475;51.658;5.634;2022-08-14T02:33:04;0.3;;;0.3;;
48679;SDS011;34475;51.658;5.634;2022-08-14T02:34:19;0.3;;;0.3;;
48679;SDS011;34475;51.658;5.634;2022-08-14T02:35:04;0.3;;;0.3;;
48679;SDS011;34475;51.658;5.634;2022-08-14T02:36:11;0.3;;;0.3;;
48679;SDS011;34475;51.658;5.634;2022-08-14T02:37:09;0.3;;;0.3;;
48679;SDS011;34475;51.658;5.634;2022-08-14T02:38:01;0.3;;;0.3;;
48679;SDS011;34475;51.658;5.634;2022-08-14T02:39:00;0.3;;;0.3;;
48679;SDS011;34475;51.658;5.634;2022-08-14T02:40:05;0.3;;;0.3;;
48679;SDS011;34475;51.658;5.634;2022-08-14T02:41:00;0.3;;;0.3;;
48679;SDS011;34475;51.658;5.634;2022-08-14T02:42:06;0.3;;;0.3;;
48679;SDS011;34475;51.658;5.634;2022-08-14T02:43:04;0.3;;;0.3;;
48679;SDS011;34475;51.658;5.634;2022-08-14T02:44:01;0.3;;;0.3;;
48679;SDS011;34475;51.658;5.634;2022-08-14T02:45:00;0.3;;;0.3;;
48679;SDS011;34475;51.658;5.634;2022-08-14T02:46:02;0.3;;;0.3;;
48679;SDS011;34475;51.658;5.634;2022-08-14T02:47:02;0.3;;;0.3;;
48679;SDS011;34475;51.658;5.634;2022-08-14T02:48:02;0.3;;;0.3;;
48679;SDS011;34475;51.658;5.634;2022-08-14T02:49:05;0.3;;;0.3;;
48679;SDS011;34475;51.658;5.634;2022-08-14T02:50:00;0.3;;;0.3;;
48679;SDS011;34475;51.658;5.634;2022-08-14T02:51:03;0.3;;;0.3;;
48679;SDS011;34475;51.658;5.634;2022-08-14T02:52:00;0.3;;;0.3;;
48679;SDS011;34475;51.658;5.634;2022-08-14T02:53:08;0.3;;;0.3;;
48679;SDS011;34475;51.658;5.634;2022-08-14T02:54:00;0.3;;;0.3;;
48679;SDS011;34475;51.658;5.634;2022-08-14T02:55:01;0.3;;;0.3;;
48679;SDS011;34475;51.658;5.634;2022-08-14T02:56:11;0.3;;;0.3;;
48679;SDS011;34475;51.658;5.634;2022-08-14T02:57:11;0.3;;;0.3;;
48679;SDS011;34475;51.658;5.634;2022-08-14T02:58:06;0.3;;;0.3;;
48679;SDS011;34475;51.658;5.634;2022-08-14T02:59:00;0.3;;;0.3;;
48679;SDS011;34475;51.658;5.634;2022-08-14T03:00:02;0.3;;;0.3;;
48679;SDS011;34475;51.658;5.634;2022-08-14T03:01:01;0.3;;;0.3;;
48679;SDS011;34475;51.658;5.634;2022-08-14T03:02:02;0.3;;;0.3;;
48679;SDS011;34475;51.658;5.634;2022-08-14T03:03:01;0.3;;;0.3;;
48679;SDS011;34475;51.658;5.634;2022-08-14T03:04:00;0.3;;;0.3;;
48679;SDS011;34475;51.658;5.634;2022-08-14T03:05:00;0.3;;;0.3;;
48679;SDS011;34475;51.658;5.634;2022-08-14T03:06:00;0.3;;;0.3;;
48679;SDS011;34475;51.658;5.634;2022-08-14T03:07:09;0.3;;;0.3;;
48679;SDS011;34475;51.658;5.634;2022-08-14T03:08:12;0.3;;;0.3;;
48679;SDS011;34475;51.658;5.634;2022-08-14T03:09:00;0.3;;;0.3;;
48679;SDS011;34475;51.658;5.634;2022-08-14T03:10:10;0.3;;;0.3;;
48679;SDS011;34475;51.658;5.634;2022-08-14T03:11:06;0.3;;;0.3;;
48679;SDS011;34475;51.658;5.634;2022-08-14T03:12:05;0.2;;;0.2;;
48679;SDS011;34475;51.658;5.634;2022-08-14T03:13:03;0.2;;;0.2;;
48679;SDS011;34475;51.658;5.634;2022-08-14T03:14:00;0.2;;;0.2;;
48679;SDS011;34475;51.658;5.634;2022-08-14T03:15:09;0.2;;;0.2;;
48679;SDS011;34475;51.658;5.634;2022-08-14T03:16:10;0.2;;;0.2;;
48679;SDS011;34475;51.658;5.634;2022-08-14T03:17:00;0.2;;;0.2;;
48679;SDS011;34475;51.658;5.634;2022-08-14T03:18:00;0.2;;;0.2;;
48679;SDS011;34475;51.658;5.634;2022-08-14T03:19:02;0.2;;;0.2;;
48679;SDS011;34475;51.658;5.634;2022-08-14T03:20:00;0.2;;;0.2;;
48679;SDS011;34475;51.658;5.634;2022-08-14T03:21:02;0.2;;;0.2;;
48679;SDS011;34475;51.658;5.634;2022-08-14T03:22:00;0.2;;;0.2;;
48679;SDS011;34475;51.658;5.634;2022-08-14T03:23:04;0.2;;;0.2;;
48679;SDS011;34475;51.658;5.634;2022-08-14T03:24:09;0.2;;;0.2;;
48679;SDS011;34475;51.658;5.634;2022-08-14T03:25:01;0.2;;;0.2;;
48679;SDS011;34475;51.658;5.634;2022-08-14T03:26:02;0.2;;;0.2;;
48679;SDS011;34475;51.658;5.634;2022-08-14T03:27:00;0.2;;;0.2;;
48679;SDS011;34475;51.658;5.634;2022-08-14T03:28:04;0.2;;;0.2;;
48679;SDS011;34475;51.658;5.634;2022-08-14T03:29:02;0.2;;;0.2;;
48679;SDS011;34475;51.658;5.634;2022-08-14T03:30:06;0.2;;;0.2;;
48679;SDS011;34475;51.658;5.634;2022-08-14T03:31:00;0.2;;;0.2;;
48679;SDS011;34475;51.658;5.634;2022-08-14T03:32:00;0.2;;;0.2;;
48679;SDS011;34475;51.658;5.634;2022-08-14T03:33:00;0.2;;;0.2;;
48679;SDS011;34475;51.658;5.634;2022-08-14T03:34:00;0.2;;;0.2;;
48679;SDS011;34475;51.658;5.634;2022-08-14T03:35:00;0.2;;;0.2;;
48679;SDS011;34475;51.658;5.634;2022-08-14T03:36:12;0.2;;;0.2;;
48679;SDS011;34475;51.658;5.634;2022-08-14T03:37:11;0.2;;;0.2;;
48679;SDS011;34475;51.658;5.634;2022-08-14T03:38:17;0.2;;;0.2;;
48679;SDS011;34475;51.658;5.634;2022-08-14T03:39:10;0.2;;;0.2;;
48679;SDS011;34475;51.658;5.634;2022-08-14T03:40:00;0.2;;;0.2;;
48679;SDS011;34475;51.658;5.634;2022-08-14T03:41:01;0.2;;;0.2;;
48679;SDS011;34475;51.658;5.634;2022-08-14T03:42:03;0.2;;;0.2;;
48679;SDS011;34475;51.658;5.634;2022-08-14T03:43:04;0.2;;;0.2;;
48679;SDS011;34475;51.658;5.634;2022-08-14T03:44:11;0.2;;;0.2;;
48679;SDS011;34475;51.658;5.634;2022-08-14T03:45:10;0.2;;;0.2;;
48679;SDS011;34475;51.658;5.634;2022-08-14T03:46:01;0.2;;;0.2;;
48679;SDS011;34475;51.658;5.634;2022-08-14T03:47:03;0.2;;;0.2;;
48679;SDS011;34475;51.658;5.634;2022-08-14T03:48:20;0.2;;;0.2;;
48679;SDS011;34475;51.658;5.634;2022-08-14T03:49:04;0.2;;;0.2;;
48679;SDS011;34475;51.658;5.634;2022-08-14T03:50:02;0.2;;;0.2;;
48679;SDS011;34475;51.658;5.634;2022-08-14T03:51:01;0.2;;;0.2;;
48679;SDS011;34475;51.658;5.634;2022-08-14T03:52:03;0.1;;;0.1;;
48679;SDS011;34475;51.658;5.634;2022-08-14T03:53:01;0.1;;;0.1;;
48679;SDS011;34475;51.658;5.634;2022-08-14T03:54:03;0.1;;;0.1;;
48679;SDS011;34475;51.658;5.634;2022-08-14T03:55:03;0.1;;;0.1;;
48679;SDS011;34475;51.658;5.634;2022-08-14T03:56:00;0.1;;;0.1;;
48679;SDS011;34475;51.658;5.634;2022-08-14T03:57:03;0.1;;;0.1;;
48679;SDS011;34475;51.658;5.634;2022-08-14T03:58:01;0.1;;;0.1;;
48679;SDS011;34475;51.658;5.634;2022-08-14T03:59:04;0.1;;;0.1;;
48679;SDS011;34475;51.658;5.634;2022-08-14T04:00:06;0.1;;;0.1;;
48679;SDS011;34475;51.658;5.634;2022-08-14T04:01:01;0.1;;;0.1;;
48679;SDS011;34475;51.658;5.634;2022-08-14T04:02:04;0.1;;;0.1;;
48679;SDS011;34475;51.658;5.634;2022-08-14T04:03:01;0.1;;;0.1;;
48679;SDS011;34475;51.658;5.634;2022-08-14T04:04:05;0.1;;;0.1;;
48679;SDS011;34475;51.658;5.634;2022-08-14T04:05:10;0.1;;;0.1;;
48679;SDS011;34475;51.658;5.634;2022-08-14T04:06:00;0.1;;;0.1;;
48679;SDS011;34475;51.658;5.634;2022-08-14T04:07:00;0.1;;;0.1;;
48679;SDS011;34475;51.658;5.634;2022-08-14T04:08:10;0.1;;;0.1;;
48679;SDS011;34475;51.658;5.634;2022-08-14T04:09:02;0.1;;;0.1;;
48679;SDS011;34475;51.658;5.634;2022-08-14T04:10:03;0.1;;;0.1;;
48679;SDS011;34475;51.658;5.634;2022-08-14T04:11:02;0.1;;;0.1;;
48679;SDS011;34475;51.658;5.634;2022-08-14T04:12:02;0.6;;;0.6;;
48679;SDS011;34475;51.658;5.634;2022-08-14T04:13:05;0.6;;;0.6;;
48679;SDS011;34475;51.658;5.634;2022-08-14T04:14:01;0.6;;;0.6;;
48679;SDS011;34475;51.658;5.634;2022-08-14T04:15:00;0.6;;;0.6;;
48679;SDS011;34475;51.658;5.634;2022-08-14T04:16:07;0.6;;;0.6;;
48679;SDS011;34475;51.658;5.634;2022-08-14T04:17:03;0.6;;;0.6;;
48679;SDS011;34475;51.658;5.634;2022-08-14T04:18:06;0.6;;;0.6;;
48679;SDS011;34475;51.658;5.634;2022-08-14T04:19:03;0.6;;;0.6;;
48679;SDS011;34475;51.658;5.634;2022-08-14T04:20:04;0.6;;;0.6;;
48679;SDS011;34475;51.658;5.634;2022-08-14T04:21:01;0.6;;;0.6;;
48679;SDS011;34475;51.658;5.634;2022-08-14T04:23:02;0.6;;;0.6;;
48679;SDS011;34475;51.658;5.634;2022-08-14T04:24:00;0.6;;;0.6;;
48679;SDS011;34475;51.658;5.634;2022-08-14T04:25:06;0.6;;;0.6;;
48679;SDS011;34475;51.658;5.634;2022-08-14T04:26:01;0.6;;;0.6;;
48679;SDS011;34475;51.658;5.634;2022-08-14T04:27:00;0.6;;;0.6;;
48679;SDS011;34475;51.658;5.634;2022-08-14T04:28:05;0.6;;;0.6;;
48679;SDS011;34475;51.658;5.634;2022-08-14T04:29:12;0.6;;;0.6;;
48679;SDS011;34475;51.658;5.634;2022-08-14T04:31:00;0.6;;;0.6;;
48679;SDS011;34475;51.658;5.634;2022-08-14T04:32:10;0.2;;;0.2;;
48679;SDS011;34475;51.658;5.634;2022-08-14T04:33:10;0.2;;;0.2;;
48679;SDS011;34475;51.658;5.634;2022-08-14T04:34:00;0.2;;;0.2;;
48679;SDS011;34475;51.658;5.634;2022-08-14T04:35:00;0.2;;;0.2;;
48679;SDS011;34475;51.658;5.634;2022-08-14T04:36:00;0.2;;;0.2;;
48679;SDS011;34475;51.658;5.634;2022-08-14T04:37:10;0.2;;;0.2;;
48679;SDS011;34475;51.658;5.634;2022-08-14T04:38:24;0.2;;;0.2;;
48679;SDS011;34475;51.658;5.634;2022-08-14T04:39:10;0.2;;;0.2;;
48679;SDS011;34475;51.658;5.634;2022-08-14T04:40:13;0.2;;;0.2;;
48679;SDS011;34475;51.658;5.634;2022-08-14T04:41:10;0.2;;;0.2;;
48679;SDS011;34475;51.658;5.634;2022-08-14T04:42:10;0.2;;;0.2;;
48679;SDS011;34475;51.658;5.634;2022-08-14T04:43:10;0.2;;;0.2;;
48679;SDS011;34475;51.658;5.634;2022-08-14T04:44:00;0.2;;;0.2;;
48679;SDS011;34475;51.658;5.634;2022-08-14T04:45:01;0.2;;;0.2;;
48679;SDS011;34475;51.658;5.634;2022-08-14T04:46:01;0.2;;;0.2;;
48679;SDS011;34475;51.658;5.634;2022-08-14T04:47:11;0.2;;;0.2;;
48679;SDS011;34475;51.658;5.634;2022-08-14T04:48:11;0.2;;;0.2;;
48679;SDS011;34475;51.658;5.634;2022-08-14T04:49:02;0.2;;;0.2;;
48679;SDS011;34475;51.658;5.634;2022-08-14T04:50:04;0.2;;;0.2;;
48679;SDS011;34475;51.658;5.634;2022-08-14T04:51:03;0.2;;;0.2;;
48679;SDS011;34475;51.658;5.634;2022-08-14T04:52:03;0.4;;;0.4;;
48679;SDS011;34475;51.658;5.634;2022-08-14T04:53:01;0.4;;;0.4;;
48679;SDS011;34475;51.658;5.634;2022-08-14T04:54:00;0.4;;;0.4;;
48679;SDS011;34475;51.658;5.634;2022-08-14T04:55:01;0.4;;;0.4;;
48679;SDS011;34475;51.658;5.634;2022-08-14T04:56:00;0.4;;;0.4;;
48679;SDS011;34475;51.658;5.634;2022-08-14T04:57:00;0.4;;;0.4;;
48679;SDS011;34475;51.658;5.634;2022-08-14T04:58:03;0.4;;;0.4;;
48679;SDS011;34475;51.658;5.634;2022-08-14T04:59:05;0.4;;;0.4;;
48679;SDS011;34475;51.658;5.634;2022-08-14T05:00:01;0.4;;;0.4;;
48679;SDS011;34475;51.658;5.634;2022-08-14T05:01:03;0.4;;;0.4;;
48679;SDS011;34475;51.658;5.634;2022-08-14T05:02:00;0.4;;;0.4;;
48679;SDS011;34475;51.658;5.634;2022-08-14T05:03:02;0.4;;;0.4;;
48679;SDS011;34475;51.658;5.634;2022-08-14T05:04:00;0.4;;;0.4;;
48679;SDS011;34475;51.658;5.634;2022-08-14T05:05:00;0.4;;;0.4;;
48679;SDS011;34475;51.658;5.634;2022-08-14T05:06:03;0.4;;;0.4;;
48679;SDS011;34475;51.658;5.634;2022-08-14T05:07:00;0.4;;;0.4;;
48679;SDS011;34475;51.658;5.634;2022-08-14T05:08:11;0.4;;;0.4;;
48679;SDS011;34475;51.658;5.634;2022-08-14T05:09:00;0.4;;;0.4;;
48679;SDS011;34475;51.658;5.634;2022-08-14T05:10:12;0.4;;;0.4;;
48679;SDS011;34475;51.658;5.634;2022-08-14T05:11:06;0.4;;;0.4;;
48679;SDS011;34475;51.658;5.634;2022-08-14T05:12:10;0.3;;;0.3;;
48679;SDS011;34475;51.658;5.634;2022-08-14T05:13:10;0.3;;;0.3;;
48679;SDS011;34475;51.658;5.634;2022-08-14T05:14:11;0.3;;;0.3;;
48679;SDS011;34475;51.658;5.634;2022-08-14T05:15:01;0.3;;;0.3;;
48679;SDS011;34475;51.658;5.634;2022-08-14T05:16:00;0.3;;;0.3;;
48679;SDS011;34475;51.658;5.634;2022-08-14T05:17:02;0.3;;;0.3;;
48679;SDS011;34475;51.658;5.634;2022-08-14T05:18:13;0.3;;;0.3;;
48679;SDS011;34475;51.658;5.634;2022-08-14T05:19:13;0.3;;;0.3;;
48679;SDS011;34475;51.658;5.634;2022-08-14T05:20:11;0.3;;;0.3;;
48679;SDS011;34475;51.658;5.634;2022-08-14T05:21:11;0.3;;;0.3;;
48679;SDS011;34475;51.658;5.634;2022-08-14T05:22:10;0.3;;;0.3;;
48679;SDS011;34475;51.658;5.634;2022-08-14T05:23:02;0.3;;;0.3;;
48679;SDS011;34475;51.658;5.634;2022-08-14T05:24:01;0.3;;;0.3;;
48679;SDS011;34475;51.658;5.634;2022-08-14T05:25:02;0.3;;;0.3;;
48679;SDS011;34475;51.658;5.634;2022-08-14T05:26:01;0.3;;;0.3;;
48679;SDS011;34475;51.658;5.634;2022-08-14T05:27:02;0.3;;;0.3;;
48679;SDS011;34475;51.658;5.634;2022-08-14T05:28:18;0.3;;;0.3;;
48679;SDS011;34475;51.658;5.634;2022-08-14T05:29:00;0.3;;;0.3;;
48679;SDS011;34475;51.658;5.634;2022-08-14T05:30:03;0.3;;;0.3;;
48679;SDS011;34475;51.658;5.634;2022-08-14T05:31:05;0.3;;;0.3;;
48679;SDS011;34475;51.658;5.634;2022-08-14T05:32:06;0.8;;;0.8;;
48679;SDS011;34475;51.658;5.634;2022-08-14T05:33:00;0.8;;;0.8;;
48679;SDS011;34475;51.658;5.634;2022-08-14T05:34:00;0.8;;;0.8;;
48679;SDS011;34475;51.658;5.634;2022-08-14T05:35:00;0.8;;;0.8;;
48679;SDS011;34475;51.658;5.634;2022-08-14T05:36:01;0.8;;;0.8;;
48679;SDS011;34475;51.658;5.634;2022-08-14T05:37:03;0.8;;;0.8;;
48679;SDS011;34475;51.658;5.634;2022-08-14T05:38:13;0.8;;;0.8;;
48679;SDS011;34475;51.658;5.634;2022-08-14T05:39:03;0.8;;;0.8;;
48679;SDS011;34475;51.658;5.634;2022-08-14T05:40:01;0.8;;;0.8;;
48679;SDS011;34475;51.658;5.634;2022-08-14T05:41:08;0.8;;;0.8;;
48679;SDS011;34475;51.658;5.634;2022-08-14T05:42:01;0.8;;;0.8;;
48679;SDS011;34475;51.658;5.634;2022-08-14T05:43:07;0.8;;;0.8;;
48679;SDS011;34475;51.658;5.634;2022-08-14T05:44:00;0.8;;;0.8;;
48679;SDS011;34475;51.658;5.634;2022-08-14T05:45:01;0.8;;;0.8;;
48679;SDS011;34475;51.658;5.634;2022-08-14T05:46:01;0.8;;;0.8;;
48679;SDS011;34475;51.658;5.634;2022-08-14T05:47:01;0.8;;;0.8;;
48679;SDS011;34475;51.658;5.634;2022-08-14T05:48:02;0.8;;;0.8;;
48679;SDS011;34475;51.658;5.634;2022-08-14T05:49:00;0.8;;;0.8;;
48679;SDS011;34475;51.658;5.634;2022-08-14T05:50:00;0.8;;;0.8;;
48679;SDS011;34475;51.658;5.634;2022-08-14T05:51:01;0.8;;;0.8;;
48679;SDS011;34475;51.658;5.634;2022-08-14T05:52:02;0.3;;;0.3;;
48679;SDS011;34475;51.658;5.634;2022-08-14T05:53:00;0.3;;;0.3;;
48679;SDS011;34475;51.658;5.634;2022-08-14T05:54:10;0.3;;;0.3;;
48679;SDS011;34475;51.658;5.634;2022-08-14T05:55:00;0.3;;;0.3;;
48679;SDS011;34475;51.658;5.634;2022-08-14T05:56:00;0.3;;;0.3;;
48679;SDS011;34475;51.658;5.634;2022-08-14T05:57:01;0.3;;;0.3;;
48679;SDS011;34475;51.658;5.634;2022-08-14T05:58:02;0.3;;;0.3;;
48679;SDS011;34475;51.658;5.634;2022-08-14T05:59:00;0.3;;;0.3;;
48679;SDS011;34475;51.658;5.634;2022-08-14T06:00:00;0.3;;;0.3;;
48679;SDS011;34475;51.658;5.634;2022-08-14T06:01:02;0.3;;;0.3;;
48679;SDS011;34475;51.658;5.634;2022-08-14T06:02:02;0.3;;;0.3;;
48679;SDS011;34475;51.658;5.634;2022-08-14T06:03:03;0.3;;;0.3;;
48679;SDS011;34475;51.658;5.634;2022-08-14T06:04:00;0.3;;;0.3;;
48679;SDS011;34475;51.658;5.634;2022-08-14T06:05:01;0.3;;;0.3;;
48679;SDS011;34475;51.658;5.634;2022-08-14T06:06:02;0.3;;;0.3;;
48679;SDS011;34475;51.658;5.634;2022-08-14T06:07:00;0.3;;;0.3;;
48679;SDS011;34475;51.658;5.634;2022-08-14T06:08:00;0.3;;;0.3;;
48679;SDS011;34475;51.658;5.634;2022-08-14T06:09:00;0.3;;;0.3;;
48679;SDS011;34475;51.658;5.634;2022-08-14T06:10:05;0.3;;;0.3;;
48679;SDS011;34475;51.658;5.634;2022-08-14T06:11:05;0.3;;;0.3;;
48679;SDS011;34475;51.658;5.634;2022-08-14T06:12:00;0.6;;;0.6;;
48679;SDS011;34475;51.658;5.634;2022-08-14T06:13:02;0.6;;;0.6;;
48679;SDS011;34475;51.658;5.634;2022-08-14T06:14:00;0.6;;;0.6;;
48679;SDS011;34475;51.658;5.634;2022-08-14T06:15:00;0.6;;;0.6;;